createdAt,value
2023-02-28T00:01:48.373Z,4.67
2023-02-28T00:04:16.579Z,3.13
2023-02-28T00:06:46.099Z,6.53
2023-02-28T00:09:14.271Z,8.47
2023-02-28T00:11:42.529Z,2.47
2023-02-28T00:14:10.849Z,2.93
2023-02-28T00:16:39.101Z,4.80
2023-02-28T00:19:07.329Z,7.13
2023-02-28T00:21:36.524Z,3.03
2023-02-28T00:24:09.443Z,3.63
2023-02-28T00:26:37.672Z,4.33
2023-02-28T00:29:05.921Z,5.90
2023-02-28T00:31:34.124Z,8.53
2023-02-28T00:34:02.248Z,3.43
2023-02-28T00:36:30.485Z,4.77
2023-02-28T00:38:58.643Z,6.37
2023-02-28T00:41:31.194Z,6.10
2023-02-28T00:43:59.376Z,3.53
2023-02-28T00:46:27.612Z,3.80
2023-02-28T00:48:55.849Z,5.00
2023-02-28T00:51:24.045Z,5.03
2023-02-28T00:53:52.320Z,4.97
2023-02-28T00:56:20.572Z,3.17
2023-02-28T00:58:50.455Z,4.67
2023-02-28T01:01:21.193Z,4.27
2023-02-28T01:03:49.353Z,3.87
2023-02-28T01:06:17.568Z,4.47
2023-02-28T01:08:45.734Z,3.87
2023-02-28T01:11:17.703Z,5.83
2023-02-28T01:13:47.301Z,5.30
2023-02-28T01:16:17.349Z,5.97
2023-02-28T01:18:46.991Z,5.67
2023-02-28T01:21:18.362Z,4.87
2023-02-28T01:23:46.870Z,4.90
2023-02-28T01:26:18.589Z,4.90
2023-02-28T01:28:47.540Z,4.43
2023-02-28T01:31:17.582Z,8.23
2023-02-28T01:33:46.542Z,5.07
2023-02-28T01:36:17.658Z,4.63
2023-02-28T01:38:46.850Z,9.33
2023-02-28T01:41:20.849Z,3.50
2023-02-28T01:44:05.057Z,4.80
2023-02-28T01:46:37.693Z,4.67
2023-02-28T01:49:14.722Z,6.27
2023-02-28T01:51:51.454Z,4.43
2023-02-28T01:54:26.346Z,5.20
2023-02-28T01:57:01.085Z,5.93
2023-02-28T01:59:36.051Z,6.87
2023-02-28T02:02:06.475Z,3.97
2023-02-28T02:04:41.003Z,5.80
2023-02-28T02:07:10.891Z,6.17
2023-02-28T02:09:39.096Z,5.07
2023-02-28T02:12:20.796Z,5.20
2023-02-28T02:15:05.163Z,4.33
2023-02-28T02:17:42.042Z,4.93
2023-02-28T02:21:15.340Z,7.23
2023-02-28T02:24:38.836Z,4.83
2023-02-28T02:27:30.801Z,4.40
2023-02-28T02:30:41.911Z,5.83
2023-02-28T02:34:04.834Z,6.03
2023-02-28T02:36:48.928Z,5.77
2023-02-28T02:39:24.197Z,5.80
2023-02-28T02:41:56.136Z,6.50
2023-02-28T02:44:28.962Z,4.50
2023-02-28T02:47:05.514Z,6.30
2023-02-28T02:49:37.492Z,4.90
2023-02-28T02:52:12.920Z,6.07
2023-02-28T02:54:46.224Z,7.97
2023-02-28T02:57:25.245Z,5.53
2023-02-28T02:59:58.358Z,6.30
2023-02-28T03:02:28.467Z,6.27
2023-02-28T03:05:03.262Z,4.77
2023-02-28T03:07:32.930Z,5.47
2023-02-28T03:10:02.229Z,5.30
2023-02-28T03:12:43.734Z,3.83
2023-02-28T03:15:25.782Z,6.17
2023-02-28T03:18:08.244Z,7.33
2023-02-28T03:20:52.087Z,5.90
2023-02-28T03:23:30.309Z,4.20
2023-02-28T03:26:05.909Z,6.67
2023-02-28T03:28:46.254Z,6.93
2023-02-28T03:31:25.494Z,4.63
2023-02-28T03:34:03.579Z,5.73
2023-02-28T03:36:44.859Z,5.13
2023-02-28T03:39:21.936Z,5.20
2023-02-28T03:41:56.484Z,7.07
2023-02-28T03:44:32.342Z,7.07
2023-02-28T03:47:08.437Z,5.60
2023-02-28T03:49:44.476Z,5.13
2023-02-28T03:52:12.659Z,6.67
2023-02-28T03:54:49.796Z,4.27
2023-02-28T03:57:28.129Z,4.97
2023-02-28T04:00:05.164Z,5.23
2023-02-28T04:02:41.406Z,5.43
2023-02-28T04:05:10.600Z,5.67
2023-02-28T04:07:39.507Z,6.20
2023-02-28T04:10:11.333Z,4.43
2023-02-28T04:12:39.508Z,5.03
2023-02-28T04:15:09.823Z,6.73
2023-02-28T04:17:38.234Z,6.57
2023-02-28T04:20:10.500Z,6.47
2023-02-28T04:22:39.195Z,7.60
2023-02-28T04:25:10.287Z,7.47
2023-02-28T04:27:38.532Z,8.47
2023-02-28T04:30:08.735Z,9.87
2023-02-28T04:32:37.002Z,6.30
2023-02-28T04:35:06.379Z,6.47
2023-02-28T04:37:35.822Z,9.97
2023-02-28T04:40:04.780Z,8.83
2023-02-28T04:42:37.164Z,6.60
2023-02-28T04:45:06.715Z,11.47
2023-02-28T04:47:34.864Z,6.67
2023-02-28T04:50:03.049Z,6.70
2023-02-28T04:52:31.278Z,8.07
2023-02-28T04:54:59.448Z,9.90
2023-02-28T04:57:27.620Z,6.43
2023-02-28T04:59:57.100Z,6.80
2023-02-28T05:02:25.415Z,6.30
2023-02-28T05:04:53.719Z,7.30
2023-02-28T05:07:22.076Z,9.80
2023-02-28T05:09:50.268Z,9.63
2023-02-28T05:12:18.539Z,7.87
2023-02-28T05:14:46.708Z,9.20
2023-02-28T05:17:16.210Z,8.57
2023-02-28T05:19:44.464Z,12.33
2023-02-28T05:22:17.723Z,5.97
2023-02-28T05:24:45.887Z,8.50
2023-02-28T05:27:14.066Z,6.97
2023-02-28T05:29:44.250Z,6.73
2023-02-28T05:32:14.784Z,6.33
2023-02-28T05:34:43.731Z,9.40
2023-02-28T05:37:15.156Z,8.50
2023-02-28T05:39:44.034Z,6.63
2023-02-28T05:42:12.182Z,8.40
2023-02-28T05:44:40.300Z,8.27
2023-02-28T05:47:08.857Z,9.23
2023-02-28T05:49:38.422Z,9.00
2023-02-28T05:52:06.774Z,8.00
2023-02-28T05:54:35.412Z,8.47
2023-02-28T05:57:06.163Z,9.23
2023-02-28T05:59:40.724Z,7.97
2023-02-28T06:02:14.138Z,9.03
2023-02-28T06:04:44.291Z,8.20
2023-02-28T06:07:12.837Z,7.67
2023-02-28T06:09:41.068Z,10.47
2023-02-28T06:12:10.845Z,8.43
2023-02-28T06:14:39.098Z,8.33
2023-02-28T06:17:07.304Z,9.07
2023-02-28T06:19:35.617Z,8.53
2023-02-28T06:22:05.378Z,9.27
2023-02-28T06:24:33.656Z,9.37
2023-02-28T06:27:05.799Z,9.00
2023-02-28T06:29:34.290Z,11.17
2023-02-28T06:32:03.015Z,9.57
2023-02-28T06:34:31.783Z,9.23
2023-02-28T06:37:03.053Z,10.37
2023-02-28T06:39:33.679Z,9.30
2023-02-28T06:42:01.909Z,12.30
2023-02-28T06:44:35.876Z,8.70
2023-02-28T06:47:06.058Z,8.70
2023-02-28T06:49:37.391Z,7.53
2023-02-28T06:52:06.071Z,8.70
2023-02-28T06:54:35.678Z,9.30
2023-02-28T06:57:03.935Z,13.27
2023-02-28T06:59:32.515Z,8.57
2023-02-28T07:02:01.257Z,11.70
2023-02-28T07:04:29.847Z,7.80
2023-02-28T07:06:58.203Z,11.50
2023-02-28T07:09:30.660Z,10.53
2023-02-28T07:12:01.522Z,8.77
2023-02-28T07:14:29.663Z,9.93
2023-02-28T07:16:57.890Z,13.20
2023-02-28T07:19:26.072Z,10.40
2023-02-28T07:21:54.257Z,9.60
2023-02-28T07:24:26.731Z,9.73
2023-02-28T07:26:54.921Z,11.00
2023-02-28T07:29:24.640Z,9.43
2023-02-28T07:31:54.102Z,9.07
2023-02-28T07:34:22.851Z,10.00
2023-02-28T07:36:54.470Z,11.03
2023-02-28T07:39:23.838Z,9.77
2023-02-28T07:41:52.029Z,9.67
2023-02-28T07:44:20.210Z,9.93
2023-02-28T07:46:49.747Z,11.90
2023-02-28T07:49:17.957Z,6.63
2023-02-28T07:51:46.401Z,9.93
2023-02-28T07:54:14.665Z,9.13
2023-02-28T07:56:42.745Z,9.60
2023-02-28T07:59:10.974Z,9.27
2023-02-28T08:01:39.194Z,10.40
2023-02-28T08:04:08.768Z,11.57
2023-02-28T08:06:36.989Z,8.77
2023-02-28T08:09:05.438Z,10.27
2023-02-28T08:11:33.677Z,11.83
2023-02-28T08:14:01.844Z,9.53
2023-02-28T08:16:30.147Z,9.10
2023-02-28T08:18:58.314Z,9.07
2023-02-28T08:21:28.296Z,11.00
2023-02-28T08:23:57.787Z,9.27
2023-02-28T08:26:26.608Z,9.23
2023-02-28T08:28:56.181Z,8.07
2023-02-28T08:31:25.348Z,9.10
2023-02-28T08:33:54.100Z,8.63
2023-02-28T08:36:22.411Z,10.30
2023-02-28T08:38:52.022Z,9.37
2023-02-28T08:41:20.242Z,11.60
2023-02-28T08:43:48.378Z,8.60
2023-02-28T08:46:16.986Z,8.47
2023-02-28T08:48:45.355Z,11.20
2023-02-28T08:51:17.241Z,13.77
2023-02-28T08:53:45.510Z,10.27
2023-02-28T08:56:17.550Z,10.20
2023-02-28T08:58:47.987Z,12.33
2023-02-28T09:01:21.430Z,12.77
2023-02-28T09:03:52.382Z,14.30
2023-02-28T09:06:22.932Z,12.73
2023-02-28T09:08:51.188Z,9.03
2023-02-28T09:11:21.603Z,9.90
2023-02-28T09:13:49.825Z,9.27
2023-02-28T09:16:19.288Z,10.03
2023-02-28T09:18:47.943Z,9.17
2023-02-28T09:21:19.703Z,11.40
2023-02-28T09:23:50.509Z,8.43
2023-02-28T09:26:24.155Z,9.60
2023-02-28T09:28:56.744Z,8.60
2023-02-28T09:31:29.057Z,11.13
2023-02-28T09:34:00.186Z,8.63
2023-02-28T09:36:41.797Z,13.90
2023-02-28T09:39:13.220Z,9.33
2023-02-28T09:41:49.488Z,10.97
2023-02-28T09:44:28.406Z,8.97
2023-02-28T09:47:02.761Z,10.00
2023-02-28T09:49:41.420Z,10.97
2023-02-28T09:52:15.804Z,7.37
2023-02-28T09:54:44.301Z,9.23
2023-02-28T09:57:23.509Z,9.33
2023-02-28T10:00:10.702Z,9.20
2023-02-28T10:03:07.240Z,9.00
2023-02-28T10:05:44.139Z,8.63
2023-02-28T10:08:19.317Z,9.60
2023-02-28T10:10:53.514Z,9.50
2023-02-28T10:13:32.937Z,9.60
2023-02-28T10:16:08.453Z,6.60
2023-02-28T10:18:48.374Z,7.50
2023-02-28T10:21:24.489Z,9.20
2023-02-28T10:24:05.065Z,9.27
2023-02-28T10:26:35.436Z,9.10
2023-02-28T10:29:05.770Z,8.17
2023-02-28T10:31:34.584Z,7.37
2023-02-28T10:34:04.439Z,7.27
2023-02-28T10:36:34.586Z,9.47
2023-02-28T10:39:03.451Z,6.73
2023-02-28T10:41:35.722Z,29.13
2023-02-28T10:44:24.313Z,13.77
2023-02-28T10:46:53.333Z,9.77
2023-02-28T10:49:25.711Z,13.73
2023-02-28T10:51:58.169Z,8.50
2023-02-28T10:54:32.718Z,12.20
2023-02-28T10:57:21.457Z,10.73
2023-02-28T11:00:07.717Z,8.07
2023-02-28T11:02:39.262Z,8.33
2023-02-28T11:05:31.553Z,10.50
2023-02-28T11:08:08.756Z,9.27
2023-02-28T11:10:37.898Z,10.10
2023-02-28T11:13:07.144Z,9.43
2023-02-28T11:15:37.787Z,8.27
2023-02-28T11:18:25.717Z,9.13
2023-02-28T11:20:58.582Z,9.43
2023-02-28T11:23:30.561Z,10.10
2023-02-28T11:26:03.097Z,7.97
2023-02-28T11:28:34.045Z,7.27
2023-02-28T11:31:16.078Z,8.53
2023-02-28T11:33:49.665Z,7.83
2023-02-28T11:36:22.711Z,8.83
2023-02-28T11:38:51.506Z,9.33
2023-02-28T11:41:57.718Z,8.93
2023-02-28T11:44:47.453Z,8.73
2023-02-28T11:47:30.856Z,7.75
2023-02-28T11:50:22.509Z,7.78
2023-02-28T11:52:56.544Z,11.18
2023-02-28T11:55:33.594Z,7.67
2023-02-28T11:58:28.862Z,10.10
2023-02-28T12:01:30.435Z,9.57
2023-02-28T12:04:19.454Z,10.77
2023-02-28T12:07:03.581Z,10.60
2023-02-28T12:09:54.605Z,10.15
2023-02-28T12:12:45.985Z,12.10
2023-02-28T12:15:44.078Z,8.85
2023-02-28T12:18:44.393Z,9.45
2023-02-28T12:21:33.106Z,9.45
2023-02-28T12:24:23.785Z,10.63
2023-02-28T12:26:55.251Z,8.50
2023-02-28T12:29:28.621Z,9.77
2023-02-28T12:32:05.902Z,10.40
2023-02-28T12:34:40.543Z,9.95
2023-02-28T12:37:19.553Z,9.07
2023-02-28T12:39:53.962Z,9.02
2023-02-28T12:42:30.657Z,8.35
2023-02-28T12:45:04.487Z,10.73
2023-02-28T12:47:32.733Z,9.15
2023-02-28T12:50:06.470Z,7.93
2023-02-28T12:52:53.425Z,17.95
2023-02-28T12:55:32.605Z,12.20
2023-02-28T12:58:10.593Z,9.07
2023-02-28T13:00:56.305Z,9.50
2023-02-28T13:04:02.039Z,9.80
2023-02-28T13:06:54.474Z,8.50
2023-02-28T13:09:24.386Z,8.55
2023-02-28T13:11:54.665Z,9.00
2023-02-28T13:14:28.902Z,9.07
2023-02-28T13:17:05.526Z,8.23
2023-02-28T13:19:37.806Z,21.25
2023-02-28T13:22:17.600Z,8.18
2023-02-28T13:24:52.315Z,13.30
2023-02-28T13:27:37.859Z,14.98
2023-02-28T13:31:00.595Z,18.95
2023-02-28T13:33:31.727Z,9.13
2023-02-28T13:36:24.705Z,8.68
2023-02-28T13:39:00.937Z,9.52
2023-02-28T13:41:50.891Z,10.30
2023-02-28T13:44:24.231Z,9.80
2023-02-28T13:47:31.417Z,8.93
2023-02-28T13:50:31.828Z,9.93
2023-02-28T13:53:50.517Z,10.40
2023-02-28T13:56:50.623Z,9.27
2023-02-28T13:59:33.160Z,9.60
2023-02-28T14:02:30.900Z,10.30
2023-02-28T14:05:07.747Z,21.30
2023-02-28T14:07:47.057Z,21.38
2023-02-28T14:10:29.509Z,16.08
2023-02-28T14:13:04.170Z,11.25
2023-02-28T14:15:57.656Z,9.13
2023-02-28T14:18:34.188Z,9.55
2023-02-28T14:21:21.944Z,15.52
2023-02-28T14:24:41.705Z,17.27
2023-02-28T14:27:41.462Z,26.77
2023-02-28T14:30:44.030Z,9.32
2023-02-28T14:33:45.309Z,8.98
2023-02-28T14:36:23.507Z,8.52
2023-02-28T14:38:55.091Z,38.85
2023-02-28T14:41:36.199Z,17.33
2023-02-28T14:44:15.535Z,11.98
2023-02-28T14:46:47.667Z,44.65
2023-02-28T14:49:22.331Z,24.27
2023-02-28T14:51:52.935Z,17.08
2023-02-28T14:54:25.915Z,16.90
2023-02-28T14:56:54.251Z,22.88
2023-02-28T14:59:32.435Z,29.02
2023-02-28T15:02:22.662Z,21.02
2023-02-28T15:04:59.927Z,25.40
2023-02-28T15:07:32.047Z,33.05
2023-02-28T15:10:16.410Z,50.85
2023-02-28T15:12:54.632Z,27.67
2023-02-28T15:15:35.930Z,28.58
2023-02-28T15:18:23.874Z,13.32
2023-02-28T15:20:53.417Z,36.95
2023-02-28T15:23:23.639Z,16.90
2023-02-28T15:25:54.585Z,30.50
2023-02-28T15:28:25.812Z,11.38
2023-02-28T15:30:58.442Z,19.40
2023-02-28T15:33:31.690Z,78.65
2023-02-28T15:36:16.600Z,11.32
2023-02-28T15:38:45.940Z,9.63
2023-02-28T15:41:28.249Z,14.52
2023-02-28T15:44:27.672Z,12.00
2023-02-28T15:47:03.409Z,13.98
2023-02-28T15:49:46.972Z,15.55
2023-02-28T15:52:19.383Z,11.80
2023-02-28T15:54:49.323Z,11.25
2023-02-28T15:57:23.380Z,12.88
2023-02-28T15:59:56.856Z,12.02
2023-02-28T16:02:34.977Z,19.42
2023-02-28T16:05:31.469Z,61.58
2023-02-28T16:08:01.999Z,23.38
2023-02-28T16:10:31.920Z,16.00
2023-02-28T16:13:00.359Z,23.02
2023-02-28T16:15:32.569Z,12.02
2023-02-28T16:18:00.932Z,13.73
2023-02-28T16:20:32.626Z,11.07
2023-02-28T16:23:02.580Z,14.15
2023-02-28T16:25:38.790Z,11.52
2023-02-28T16:28:18.695Z,10.07
2023-02-28T16:30:47.119Z,10.82
2023-02-28T16:33:15.320Z,12.80
2023-02-28T16:35:48.045Z,12.32
2023-02-28T16:38:16.265Z,12.43
2023-02-28T16:40:44.551Z,13.43
2023-02-28T16:43:19.984Z,18.57
2023-02-28T16:45:48.967Z,17.00
2023-02-28T16:48:18.647Z,12.20
2023-02-28T16:50:48.294Z,14.57
2023-02-28T16:53:16.491Z,13.87
2023-02-28T16:55:45.145Z,19.67
2023-02-28T16:58:18.333Z,11.73
2023-02-28T17:00:46.899Z,15.07
2023-02-28T17:03:32.727Z,18.03
2023-02-28T17:06:03.514Z,23.83
2023-02-28T17:08:33.015Z,21.93
2023-02-28T17:11:02.659Z,54.10
2023-02-28T17:13:30.884Z,31.30
2023-02-28T17:15:59.267Z,20.77
2023-02-28T17:18:27.659Z,20.90
2023-02-28T17:20:56.593Z,25.47
2023-02-28T17:23:26.533Z,20.20
2023-02-28T17:25:57.777Z,28.17
2023-02-28T17:28:26.755Z,61.93
2023-02-28T17:30:55.051Z,53.40
2023-02-28T17:33:23.339Z,45.83
2023-02-28T17:35:51.969Z,29.30
2023-02-28T17:38:23.785Z,21.77
2023-02-28T17:41:03.896Z,15.47
2023-02-28T17:43:32.069Z,17.57
2023-02-28T17:46:00.420Z,16.77
2023-02-28T17:48:29.609Z,11.70
2023-02-28T17:50:59.039Z,23.77
2023-02-28T17:53:28.092Z,29.63
2023-02-28T17:55:57.728Z,30.87
2023-02-28T17:58:26.286Z,24.90
2023-02-28T18:00:55.436Z,14.03
2023-02-28T18:03:25.159Z,14.83
2023-02-28T18:05:53.733Z,20.77
2023-02-28T18:08:22.070Z,12.50
2023-02-28T18:10:50.420Z,17.03
2023-02-28T18:13:20.065Z,20.03
2023-02-28T18:15:48.883Z,112.40
2023-02-28T18:18:17.165Z,115.17
2023-02-28T18:20:45.458Z,41.00
2023-02-28T18:23:13.757Z,26.97
2023-02-28T18:25:42.537Z,17.17
2023-02-28T18:28:10.885Z,12.47
2023-02-28T18:30:41.069Z,9.87
2023-02-28T18:33:09.284Z,13.80
2023-02-28T18:35:37.643Z,12.50
2023-02-28T18:38:10.258Z,13.80
2023-02-28T18:40:39.338Z,10.83
2023-02-28T18:43:08.072Z,11.37
2023-02-28T18:45:38.431Z,11.87
2023-02-28T18:48:08.236Z,12.00
2023-02-28T18:50:39.667Z,14.83
2023-02-28T18:53:08.061Z,11.67
2023-02-28T18:55:36.243Z,15.97
2023-02-28T18:58:04.662Z,13.23
2023-02-28T19:00:33.290Z,10.13
2023-02-28T19:03:01.549Z,12.27
2023-02-28T19:05:34.371Z,18.70
2023-02-28T19:08:03.110Z,22.10
2023-02-28T19:10:31.554Z,19.20
2023-02-28T19:12:59.804Z,21.90
2023-02-28T19:15:28.060Z,21.53
2023-02-28T19:17:56.398Z,19.70
2023-02-28T19:20:25.805Z,15.37
2023-02-28T19:22:55.543Z,18.27
2023-02-28T19:25:24.669Z,15.87
2023-02-28T19:27:54.335Z,14.20
2023-02-28T19:30:23.029Z,14.97
2023-02-28T19:32:51.839Z,12.53
2023-02-28T19:35:20.137Z,12.40
2023-02-28T19:37:48.586Z,12.43
2023-02-28T19:40:18.507Z,14.80
2023-02-28T19:42:46.761Z,14.07
2023-02-28T19:45:15.579Z,15.73
2023-02-28T19:47:45.735Z,21.97
2023-02-28T19:50:13.892Z,28.53
2023-02-28T19:52:43.485Z,35.50
2023-02-28T19:55:12.194Z,33.23
2023-02-28T19:57:42.653Z,37.10
2023-02-28T20:00:14.016Z,36.03
2023-02-28T20:02:43.944Z,39.00
2023-02-28T20:05:12.302Z,37.97
2023-02-28T20:07:40.736Z,39.50
2023-02-28T20:10:10.451Z,31.03
2023-02-28T20:12:38.657Z,32.13
2023-02-28T20:15:10.514Z,31.83
2023-02-28T20:17:40.633Z,30.63
2023-02-28T20:20:11.622Z,29.47
2023-02-28T20:22:40.270Z,27.43
2023-02-28T20:25:11.465Z,22.90
2023-02-28T20:27:39.867Z,21.03
2023-02-28T20:30:11.786Z,19.57
2023-02-28T20:32:40.325Z,27.17
2023-02-28T20:35:11.521Z,22.47
2023-02-28T20:37:40.532Z,16.90
2023-02-28T20:40:11.465Z,22.80
2023-02-28T20:42:39.684Z,18.23
2023-02-28T20:45:11.448Z,23.43
2023-02-28T20:47:39.808Z,22.60
2023-02-28T20:50:10.702Z,23.70
2023-02-28T20:52:39.113Z,21.80
2023-02-28T20:55:09.149Z,26.87
2023-02-28T20:57:37.467Z,26.60
2023-02-28T21:00:09.285Z,28.53
2023-02-28T21:02:38.958Z,25.60
2023-02-28T21:05:07.888Z,30.90
2023-02-28T21:07:36.163Z,30.80
2023-02-28T21:10:04.782Z,26.80
2023-02-28T21:12:33.076Z,24.43
2023-02-28T21:15:01.548Z,29.10
2023-02-28T21:17:30.191Z,28.40
2023-02-28T21:19:59.780Z,36.53
2023-02-28T21:22:27.985Z,39.57
2023-02-28T21:24:56.169Z,39.53
2023-02-28T21:27:24.371Z,56.33
2023-02-28T21:29:52.603Z,53.33
2023-02-28T21:32:20.860Z,47.97
2023-02-28T21:34:49.214Z,47.10
2023-02-28T21:37:18.742Z,49.20
2023-02-28T21:39:47.388Z,37.87
2023-02-28T21:42:15.592Z,36.97
2023-02-28T21:44:44.051Z,29.17
2023-02-28T21:47:12.413Z,24.63
2023-02-28T21:49:40.683Z,22.00
2023-02-28T21:52:08.881Z,22.70
2023-02-28T21:54:38.688Z,18.10
2023-02-28T21:57:06.979Z,23.93
2023-02-28T21:59:36.548Z,21.07
2023-02-28T22:02:05.526Z,27.77
2023-02-28T22:04:33.750Z,22.17
2023-02-28T22:07:06.949Z,21.30
2023-02-28T22:09:35.227Z,23.57
2023-02-28T22:12:08.317Z,26.57
2023-02-28T22:14:37.142Z,25.40
2023-02-28T22:17:05.545Z,21.93
2023-02-28T22:19:35.924Z,22.40
2023-02-28T22:22:04.186Z,23.70
2023-02-28T22:24:32.453Z,24.43
2023-02-28T22:27:00.720Z,20.17
2023-02-28T22:29:30.501Z,25.13
2023-02-28T22:31:58.690Z,23.30
2023-02-28T22:34:26.894Z,25.63
2023-02-28T22:36:55.313Z,23.43
2023-02-28T22:39:23.541Z,24.97
2023-02-28T22:41:51.820Z,28.30
2023-02-28T22:44:22.430Z,26.63
2023-02-28T22:46:55.862Z,32.33
2023-02-28T22:49:25.007Z,29.40
2023-02-28T22:51:53.248Z,29.67
2023-02-28T22:54:21.475Z,24.50
2023-02-28T22:56:49.655Z,19.50
2023-02-28T22:59:18.487Z,27.23
2023-02-28T23:01:46.716Z,21.37
2023-02-28T23:04:16.466Z,21.17
2023-02-28T23:06:45.632Z,25.73
2023-02-28T23:09:18.717Z,42.90
2023-02-28T23:11:50.062Z,32.67
2023-02-28T23:14:21.226Z,26.60
2023-02-28T23:16:53.599Z,21.83
2023-02-28T23:19:26.926Z,23.57
2023-02-28T23:21:55.663Z,26.20
2023-02-28T23:24:27.093Z,22.33
2023-02-28T23:26:59.476Z,68.37
2023-02-28T23:29:28.991Z,36.70
2023-02-28T23:31:58.060Z,32.33
2023-02-28T23:34:30.444Z,21.53
2023-02-28T23:37:01.457Z,26.23
2023-02-28T23:39:31.619Z,30.10
2023-02-28T23:42:00.218Z,20.67
2023-02-28T23:44:28.621Z,21.70
2023-02-28T23:46:56.864Z,24.43
2023-02-28T23:49:25.736Z,19.87
2023-02-28T23:51:55.757Z,21.20
2023-02-28T23:54:24.412Z,19.97
2023-02-28T23:56:52.650Z,18.37
2023-02-28T23:59:21.450Z,16.77
